Disclaimer

    

CYVR

METAR CYVR 172100Z 07007KT 30SM FEW038 FEW110 SCT260 03/M01 A3018 RMK SC1AC1CI2 SC TR SLP221=

METAR CYVR 172000Z 06009KT 30SM FEW018 FEW038 FEW140 SCT260 03/M01 A3018 RMK CU1SC1AC1CI2 CU TR AC TR SLP222=

METAR CYVR 171900Z 07009KT 30SM FEW020 FEW046 SCT260 02/M01 A3019 RMK CU1SC1CI2 CU TR SH NNE SLP224=

TAF CYVR 172038Z 1721/1824 08008KT P6SM FEW020 SCT140 BKN260
FM180000 07010KT P6SM SCT025 BKN080 OVC120
FM180400 09012G22KT P6SM SCT020 BKN040 OVC100 TEMPO 1804/1808 3SM -SHSNRA BKN020 OVC040
FM180800 09015G25KT 6SM -SNRA BR SCT015 OVC030 TEMPO 1808/1816 2SM -SN BR BKN015 OVC030
FM181600 11015KT P6SM -RA SCT015 OVC025 TEMPO 1816/1820 3SM -RASN BR OVC015
FM182000 14012KT 6SM -RA BR SCT010 OVC025 TEMPO 1820/1824 4SM -RA BR SCT006 OVC010 RMK NXT FCST BY 180000Z=

CYXX

METAR CYXX 172100Z 08005KT 30SM FEW030 SCT130 BKN220 BKN250 M05/M09 A3019 RMK CU1AC4CC1CI2 CU TR CONTRAILS SLP229=

METAR CYXX 172000Z 02004KT 30SM FEW030 FEW140 SCT230 BKN240 BKN260 M05/M08 A3019 RMK CU1AC1CC3CI1CI2 CU TR CONTRAILS SLP230=

METAR CYXX 171900Z 02005KT 30SM FEW010 FEW050 FEW230 SCT240 BKN260 M06/M08 A3020 RMK CF1CU1CC1CI3CI2 CF TR CU TR CONTRAILS SLP231=

TAF CYXX 171738Z 1718/1818 04005KT P6SM FEW010 SCT060 BKN200
FM180000 06010KT P6SM SCT040 BKN100 OVC160 TEMPO 1800/1810 4SM -SHSN BKN040 OVC100 PROB30 1805/1810 P6SM -FZRA
FM181000 06015G25KT P6SM -FZRA SCT015 OVC030 TEMPO 1810/1818 21/2SM -SN -FZRA BR OVC015 RMK NXT FCST BY 180000Z=

CYCD

METAR CYCD 172100Z 00000KT 20SM BKN025 BKN110 01/M02 A3018 RMK SC5AC2 SLP222=

METAR CYCD 172000Z 01002KT 20SM BKN015 BKN180 00/M05 A3018 RMK SC5AC2 SLP223=

METAR CYCD 171900Z 08003KT 030V090 20SM FEW011 SCT250 M02/M06 A3018 RMK SC2CI2 SLP223=

TAF AMD CYCD 172021Z 1720/1805 10008KT P6SM SCT015 BKN180 TEMPO 1720/1805 3SM -SHRASN BR BKN015 OVC180 RMK NXT FCST BY 180000Z=

Supplemental information

Lower mainland ATIS: 1-877-517-2847

CZBB (Boundary Bay) current winds

Upper winds (Vancouver)

Data fromValid at300060009000
17120017180017081906-112410-18
17120018000015181717-102218-17
17120018120015431929-032263-08

NOTAMs

Ten newest NOTAMs per file () are highlighted.